My Profile
  1. Member Settings
  2. My Devices
  3. Sign Out
        More Settings
      Elev 75 ft, 43.913 °N 69.976 °W

      Brunswick, ME

      Summary

      Temperature (°F)MaxAverageMin
      Max Temperature5837.7820
      Avg Temperature49.7229.8913.21
      Min Temperature4222.063
      Precipitation (in)MaxAverageMinSum
      Precipitation5.650.41013.21
      Dew Point (°F)MaxAverageMin
      Dew Point43.3921.91-1.42
      Wind (mph)MaxAverageMin
      Wind2490
      Gust Wind4324.9417
      Sea Level Pressure (in)MaxAverageMin
      Sea Level Pressure30.7930.0629.44

      Daily Observations

      DateTemp High/LowDew Pt High/LowHumidityWindMax WindWind GustPressurePrecip.Condition
      12/1/2024 39 °F / 23 °F 27 °F / 18 °F 72 % 7 mph - 29.87 in 0 in
      12/2/2024 38 °F / 18 °F 22 °F / 14 °F 67 % 6 mph - 29.98 in 0 in
      12/3/2024 35 °F / 20 °F 22 °F / 15 °F 69 % 7 mph - 30.07 in 0 in
      12/4/2024 39 °F / 27 °F 35 °F / 15 °F 64 % 17 mph - 29.98 in 0.16 in
      12/5/2024 44 °F / 32 °F 39 °F / 28 °F 87 % 17 mph - 29.37 in 1.32 in
      12/6/2024 32 °F / 20 °F 28 °F / 6 °F 59 % 14 mph - 29.73 in 0 in
      12/7/2024 32 °F / 13 °F 18 °F / 6 °F 68 % 6 mph - 29.95 in 0 in
      12/8/2024 39 °F / 24 °F 32 °F / 20 °F 86 % 13 mph - 29.68 in 0 in
      12/9/2024 34 °F / 26 °F 26 °F / 21 °F 78 % 8 mph - 30.09 in 0 in
      12/10/2024 29 °F / 24 °F 27 °F / 20 °F 86 % 6 mph - 30.13 in 0 in
      12/11/2024 57 °F / 30 °F 54 °F / 27 °F 92 % 24 mph - 29.69 in 7.56 in
      12/12/2024 56 °F / 29 °F 54 °F / 9 °F 67 % 17 mph - 29.68 in 0.15 in
      12/13/2024 34 °F / 18 °F 17 °F / 5 °F 52 % 9 mph - 30.46 in 0 in
      12/14/2024 34 °F / 16 °F 14 °F / 7 °F 57 % 6 mph - 30.79 in 0 in
      12/15/2024 32 °F / 11 °F 17 °F / 7 °F 68 % 3 mph - 30.75 in 0 in
      12/16/2024 44 °F / 21 °F 42 °F / 17 °F 77 % 10 mph - 30.4 in 0.09 in
      12/17/2024 58 °F / 31 °F 51 °F / 29 °F 82 % 16 mph - 29.94 in 1.27 in
      12/18/2024 49 °F / 30 °F 37 °F / 26 °F 80 % 7 mph - 30.03 in 0.36 in
      12/19/2024 42 °F / 26 °F 37 °F / 13 °F 75 % 12 mph - 30.01 in 0.46 in
      12/20/2024 29 °F / 23 °F 17 °F / 11 °F 61 % 7 mph - 30.11 in 0 in
      12/21/2024 29 °F / 15 °F 16 °F / 1 °F 64 % 7 mph - 29.83 in 0 in
      12/22/2024 20 °F / 9 °F 1 °F / -6 °F 50 % 9 mph - 30.26 in 0 in
      12/23/2024 23 °F / 3 °F 13 °F / -3 °F 64 % 9 mph - 30.49 in 0 in
      12/24/2024 34 °F / 20 °F 28 °F / 13 °F 79 % 12 mph - 30.18 in 0.56 in
      12/25/2024 28 °F / 16 °F 20 °F / 8 °F 74 % 7 mph - 30.29 in 0 in
      12/26/2024 35 °F / 9 °F 17 °F / 4 °F 74 % 7 mph - 30.38 in 0 in
      12/27/2024 36 °F / 5 °F 24 °F / 0 °F 76 % 5 mph - 30.32 in 0 in
      12/28/2024 35 °F / 19 °F 29 °F / 15 °F 77 % 3 mph - 30.19 in 0 in
      12/29/2024 38 °F / 28 °F 36 °F / 25 °F 92 % 3 mph - 30.05 in 0.08 in
      12/30/2024 53 °F / 35 °F 50 °F / 33 °F 92 % 15 mph - 29.61 in 1.2 in
      12/31/2024 49 °F / 30 °F 37 °F / 27 °F 87 % 6 mph - 29.74 in 0 in
      essentialaccessibility.com
      We recognize our responsibility to use data and technology for good. We may use or share your data with our data vendors. Take control of your data.
      Glossary